This is the latest recevied weather packets stored in our database for station/object KE6LRO. If no packets are shown the sender has not sent any weather packets the latest 10 day(s).
| Time | Temp. | Humidity | Pressure | Rain* | Wind** | Luminosity | Snow |
|---|---|---|---|---|---|---|---|
| 1778184219 | 20.56° C | 38% | 1017.7 hPa | 0 mm | - | 224 W/m² | - |
| 1778183915 | 19.44° C | 40% | 1017.8 hPa | 0 mm | - | 900 W/m² | - |
| 1778183612 | 19.44° C | 40% | 1017.9 hPa | 0 mm | - | 682 W/m² | - |
| 1778183310 | 20° C | 40% | 1017.8 hPa | 0 mm | - | 179 W/m² | - |
| 1778183006 | 18.33° C | 43% | 1017.8 hPa | 0 mm | - | 890 W/m² | - |
| 1778182703 | 18.33° C | 43% | 1017.8 hPa | 0 mm | - | 181 W/m² | - |
| 1778182400 | 18.89° C | 41% | 1017.8 hPa | 0 mm | - | 159 W/m² | - |
| 1778182095 | 18.33° C | 43% | 1018.1 hPa | 0 mm | - | 197 W/m² | - |
| 1778181793 | 18.33° C | 43% | 1017.9 hPa | 0 mm | - | 216 W/m² | - |
| 1778181489 | 18.33° C | 41% | 1018.1 hPa | 0 mm | - | 200 W/m² | - |
| 1778181185 | 17.78° C | 42% | 1017.9 hPa | 0 mm | - | 189 W/m² | - |
| 1778180882 | 17.78° C | 42% | 1018.1 hPa | 0 mm | - | 189 W/m² | - |
| 1778180581 | 17.78° C | 44% | 1017.9 hPa | 0 mm | - | 175 W/m² | - |
| 1778180279 | 17.78° C | 44% | 1017.9 hPa | 0 mm | - | 190 W/m² | - |
| 1778179975 | 17.78° C | 41% | 1017.9 hPa | 0 mm | - | 174 W/m² | - |
| 1778179673 | 17.78° C | 42% | 1018.1 hPa | 0 mm | - | 197 W/m² | - |
| 1778179371 | 17.78° C | 44% | 1018.1 hPa | 0 mm | - | 236 W/m² | - |
| 1778179067 | 17.22° C | 43% | 1017.9 hPa | 0 mm | - | 573 W/m² | - |
| 1778178764 | 17.78° C | 43% | 1018.3 hPa | 0 mm | - | 198 W/m² | - |
| 1778178462 | 17.78° C | 43% | 1018.1 hPa | 0 mm | - | 192 W/m² | - |
| 1778178156 | 17.78° C | 43% | 1018.2 hPa | 0 mm | - | 225 W/m² | - |
| 1778177853 | 17.78° C | 42% | 1018.4 hPa | 0 mm | - | 236 W/m² | - |
| 1778177550 | 16.67° C | 43% | 1017.9 hPa | 0 mm | - | 255 W/m² | - |
| 1778177246 | 16.67° C | 44% | 1018.3 hPa | 0 mm | - | 210 W/m² | - |
| 1778176943 | 17.22° C | 45% | 1018.3 hPa | 0 mm | - | 177 W/m² | - |
* Rain latest hour (hover to see other rain measurements)
** Current wind speed in m/s (hover to see current wind gust speed)